createdAt,value
2019-06-07T00:00:43.215Z,994.27
2019-06-07T00:01:43.131Z,994.25
2019-06-07T00:02:43.144Z,994.23
2019-06-07T00:03:43.089Z,994.25
2019-06-07T00:04:43.061Z,994.24
2019-06-07T00:05:43.049Z,994.21
2019-06-07T00:06:43.025Z,994.24
2019-06-07T00:07:43.004Z,994.25
2019-06-07T00:08:42.978Z,994.22
2019-06-07T00:09:42.961Z,994.19
2019-06-07T00:10:42.935Z,994.20
2019-06-07T00:11:42.919Z,994.13
2019-06-07T00:12:42.931Z,994.14
2019-06-07T00:13:42.877Z,994.15
2019-06-07T00:14:42.855Z,994.14
2019-06-07T00:15:42.826Z,994.17
2019-06-07T00:16:42.808Z,994.12
2019-06-07T00:17:42.792Z,994.16
2019-06-07T00:18:42.768Z,994.10
2019-06-07T00:19:42.765Z,994.10
2019-06-07T00:20:42.725Z,994.06
2019-06-07T00:22:13.783Z,994.05
2019-06-07T00:22:42.683Z,994.07
2019-06-07T00:23:42.661Z,994.08
2019-06-07T00:24:42.638Z,994.09
2019-06-07T00:25:42.624Z,994.08
2019-06-07T00:26:57.867Z,994.04
2019-06-07T00:27:42.574Z,994.09
2019-06-07T00:28:42.565Z,994.07
2019-06-07T00:29:42.538Z,994.03
2019-06-07T00:30:51.728Z,994.02
2019-06-07T00:31:42.484Z,994.02
2019-06-07T00:32:42.489Z,994.00
2019-06-07T00:33:42.452Z,994.02
2019-06-07T00:34:42.430Z,994.02
2019-06-07T00:35:42.404Z,994.05
2019-06-07T00:36:42.382Z,994.01
2019-06-07T00:37:42.363Z,994.03
2019-06-07T00:38:42.337Z,994.01
2019-06-07T00:39:42.317Z,994.04
2019-06-07T00:40:42.295Z,994.05
2019-06-07T00:41:42.272Z,994.09
2019-06-07T00:42:42.258Z,994.00
2019-06-07T00:43:42.227Z,994.04
2019-06-07T00:44:42.215Z,994.04
2019-06-07T00:45:42.195Z,993.97
2019-06-07T00:46:42.175Z,993.99
2019-06-07T00:47:42.143Z,993.99
2019-06-07T00:48:42.125Z,994.00
2019-06-07T00:49:42.121Z,994.00
2019-06-07T00:50:42.079Z,993.99
2019-06-07T00:51:50.380Z,993.95
2019-06-07T00:53:14.125Z,993.94
2019-06-07T00:53:42.019Z,993.93
2019-06-07T00:54:42.009Z,993.90
2019-06-07T00:55:41.980Z,993.89
2019-06-07T00:56:41.952Z,993.90
2019-06-07T00:57:41.939Z,993.92
2019-06-07T00:58:41.913Z,993.90
2019-06-07T00:59:41.955Z,993.89
2019-06-07T01:00:41.871Z,993.89
2019-06-07T01:01:41.846Z,993.87
2019-06-07T01:02:41.827Z,993.89
2019-06-07T01:03:41.805Z,993.91
2019-06-07T01:04:41.792Z,993.91
2019-06-07T01:05:41.773Z,993.91
2019-06-07T01:06:41.740Z,993.89
2019-06-07T01:07:41.755Z,993.90
2019-06-07T01:08:41.700Z,993.88
2019-06-07T01:09:41.679Z,993.91
2019-06-07T01:10:53.033Z,993.91
2019-06-07T01:11:41.640Z,993.89
2019-06-07T01:12:41.612Z,993.88
2019-06-07T01:13:41.592Z,993.88
2019-06-07T01:14:41.573Z,993.88
2019-06-07T01:15:41.551Z,993.89
2019-06-07T01:16:56.734Z,993.88
2019-06-07T01:18:11.961Z,993.91
2019-06-07T01:18:46.536Z,993.91
2019-06-07T01:19:41.466Z,993.88
2019-06-07T01:20:41.446Z,993.89
2019-06-07T01:21:41.441Z,993.89
2019-06-07T01:22:41.408Z,993.86
2019-06-07T01:24:07.958Z,993.89
2019-06-07T01:24:41.360Z,993.82
2019-06-07T01:25:41.397Z,993.81
2019-06-07T01:26:41.320Z,993.87
2019-06-07T01:27:41.297Z,993.83
2019-06-07T01:28:41.287Z,993.82
2019-06-07T01:29:41.271Z,993.82
2019-06-07T01:30:41.244Z,993.78
2019-06-07T01:31:41.220Z,993.72
2019-06-07T01:32:41.191Z,993.78
2019-06-07T01:33:50.898Z,993.74
2019-06-07T01:34:41.153Z,993.83
2019-06-07T01:35:41.134Z,993.82
2019-06-07T01:36:41.102Z,993.79
2019-06-07T01:37:41.087Z,993.82
2019-06-07T01:38:41.064Z,993.78
2019-06-07T01:39:41.067Z,993.81
2019-06-07T01:40:41.029Z,993.78
2019-06-07T01:41:41.000Z,993.74
2019-06-07T01:42:40.980Z,993.74
2019-06-07T01:43:40.962Z,993.73
2019-06-07T01:44:40.936Z,993.71
2019-06-07T01:45:40.918Z,993.69
2019-06-07T01:46:40.905Z,993.70
2019-06-07T01:47:40.879Z,993.68
2019-06-07T01:48:49.633Z,993.62
2019-06-07T01:49:40.870Z,993.66
2019-06-07T01:50:40.818Z,993.72
2019-06-07T01:51:40.823Z,993.73
2019-06-07T01:52:40.774Z,993.71
2019-06-07T01:53:40.748Z,993.72
2019-06-07T01:54:56.740Z,993.72
2019-06-07T01:55:40.710Z,993.71
2019-06-07T01:56:40.688Z,993.71
2019-06-07T01:57:48.105Z,993.67
2019-06-07T01:58:40.643Z,993.78
2019-06-07T01:59:40.621Z,993.79
2019-06-07T02:00:40.607Z,993.74
2019-06-07T02:01:40.583Z,993.75
2019-06-07T02:02:40.561Z,993.75
2019-06-07T02:03:40.541Z,993.72
2019-06-07T02:04:40.523Z,993.69
2019-06-07T02:05:40.495Z,993.72
2019-06-07T02:06:40.479Z,993.71
2019-06-07T02:07:40.453Z,993.69
2019-06-07T02:08:40.432Z,993.72
2019-06-07T02:09:40.415Z,993.70
2019-06-07T02:10:40.393Z,993.74
2019-06-07T02:11:40.370Z,993.77
2019-06-07T02:12:43.460Z,993.75
2019-06-07T02:13:40.330Z,993.80
2019-06-07T02:14:40.305Z,993.74
2019-06-07T02:15:40.289Z,993.74
2019-06-07T02:16:40.261Z,993.75
2019-06-07T02:17:40.246Z,993.71
2019-06-07T02:19:00.602Z,993.70
2019-06-07T02:19:40.199Z,993.71
2019-06-07T02:20:40.177Z,993.69
2019-06-07T02:21:40.154Z,993.68
2019-06-07T02:22:40.141Z,993.62
2019-06-07T02:23:40.112Z,993.63
2019-06-07T02:24:40.089Z,993.62
2019-06-07T02:25:48.707Z,993.58
2019-06-07T02:26:40.051Z,993.59
2019-06-07T02:27:40.031Z,993.61
2019-06-07T02:28:45.666Z,993.61
2019-06-07T02:29:39.990Z,993.59
2019-06-07T02:30:53.248Z,993.60
2019-06-07T02:31:40.123Z,993.57
2019-06-07T02:32:39.973Z,993.51
2019-06-07T02:33:40.537Z,993.55
2019-06-07T02:34:40.112Z,993.55
2019-06-07T02:35:41.122Z,993.52
2019-06-07T02:36:41.775Z,993.51
2019-06-07T02:37:39.820Z,993.54
2019-06-07T02:38:39.810Z,993.55
2019-06-07T02:39:41.071Z,993.52
2019-06-07T02:40:39.755Z,993.58
2019-06-07T02:41:40.548Z,993.58
2019-06-07T02:42:42.738Z,993.58
2019-06-07T02:43:39.689Z,993.54
2019-06-07T02:44:40.464Z,993.53
2019-06-07T02:45:43.511Z,993.54
2019-06-07T02:46:46.824Z,993.49
2019-06-07T02:47:39.638Z,993.46
2019-06-07T02:48:40.456Z,993.47
2019-06-07T02:49:41.676Z,993.42
2019-06-07T02:50:39.543Z,993.39
2019-06-07T02:51:41.572Z,993.40
2019-06-07T02:52:40.876Z,993.37
2019-06-07T02:53:40.444Z,993.35
2019-06-07T02:54:40.684Z,993.39
2019-06-07T02:56:33.206Z,993.41
2019-06-07T02:56:56.222Z,993.36
2019-06-07T02:57:41.625Z,993.39
2019-06-07T02:58:41.976Z,993.34
2019-06-07T03:00:02.962Z,993.33
2019-06-07T03:00:55.391Z,993.36
2019-06-07T03:01:42.242Z,993.32
2019-06-07T03:02:41.390Z,993.34
2019-06-07T03:03:40.169Z,993.31
2019-06-07T03:04:43.769Z,993.29
2019-06-07T03:05:41.000Z,993.27
2019-06-07T03:06:43.462Z,993.31
2019-06-07T03:07:44.570Z,993.31
2019-06-07T03:08:39.153Z,993.27
2019-06-07T03:09:40.005Z,993.28
2019-06-07T03:10:41.748Z,993.23
2019-06-07T03:11:39.090Z,993.26
2019-06-07T03:12:39.311Z,993.23
2019-06-07T03:13:41.201Z,993.23
2019-06-07T03:14:39.473Z,993.22
2019-06-07T03:15:45.774Z,993.22
2019-06-07T03:16:39.221Z,993.23
2019-06-07T03:17:40.830Z,993.25
2019-06-07T03:18:41.546Z,993.21
2019-06-07T03:19:39.571Z,993.17
2019-06-07T03:20:39.841Z,993.18
2019-06-07T03:21:41.677Z,993.19
2019-06-07T03:22:41.132Z,993.20
2019-06-07T03:23:39.193Z,993.25
2019-06-07T03:24:42.106Z,993.20
2019-06-07T03:25:39.339Z,993.18
2019-06-07T03:27:30.458Z,993.19
2019-06-07T03:27:48.295Z,993.23
2019-06-07T03:28:39.562Z,993.26
2019-06-07T03:29:41.152Z,993.28
2019-06-07T03:30:54.559Z,993.30
2019-06-07T03:31:45.953Z,993.29
2019-06-07T03:32:46.312Z,993.28
2019-06-07T03:33:42.693Z,993.30
2019-06-07T03:34:42.867Z,993.31
2019-06-07T03:35:40.670Z,993.29
2019-06-07T03:36:40.070Z,993.29
2019-06-07T03:37:42.620Z,993.25
2019-06-07T03:38:39.930Z,993.21
2019-06-07T03:39:40.934Z,993.20
2019-06-07T03:40:40.145Z,993.22
2019-06-07T03:41:50.231Z,993.14
2019-06-07T03:42:40.018Z,993.13
2019-06-07T03:43:40.593Z,993.07
2019-06-07T03:44:41.255Z,993.11
2019-06-07T03:45:41.370Z,993.14
2019-06-07T03:46:41.463Z,993.18
2019-06-07T03:47:41.994Z,993.17
2019-06-07T03:48:41.004Z,993.18
2019-06-07T03:49:42.114Z,993.24
2019-06-07T03:50:41.853Z,993.22
2019-06-07T03:51:40.560Z,993.25
2019-06-07T03:52:40.946Z,993.27
2019-06-07T03:53:40.723Z,993.26
2019-06-07T03:54:39.876Z,993.28
2019-06-07T03:55:41.183Z,993.33
2019-06-07T03:56:40.861Z,993.35
2019-06-07T03:58:29.517Z,993.36
2019-06-07T03:58:49.234Z,993.35
2019-06-07T03:59:41.288Z,993.34
2019-06-07T04:00:42.598Z,993.34
2019-06-07T04:01:41.061Z,993.35
2019-06-07T04:02:41.708Z,993.37
2019-06-07T04:03:46.306Z,993.39
2019-06-07T04:04:39.756Z,993.38
2019-06-07T04:05:41.235Z,993.37
2019-06-07T04:06:41.937Z,993.33
2019-06-07T04:07:43.781Z,993.31
2019-06-07T04:08:41.313Z,993.34
2019-06-07T04:09:42.486Z,993.29
2019-06-07T04:10:55.650Z,993.31
2019-06-07T04:11:39.439Z,993.30
2019-06-07T04:12:40.045Z,993.32
2019-06-07T04:13:42.562Z,993.28
2019-06-07T04:14:40.449Z,993.27
2019-06-07T04:15:39.600Z,993.18
2019-06-07T04:16:43.585Z,993.17
2019-06-07T04:17:44.547Z,993.10
2019-06-07T04:18:40.867Z,993.12
2019-06-07T04:19:42.516Z,993.10
2019-06-07T04:20:40.703Z,993.09
2019-06-07T04:21:42.138Z,993.07
2019-06-07T04:22:42.025Z,993.09
2019-06-07T04:23:44.725Z,993.04
2019-06-07T04:24:40.205Z,993.03
2019-06-07T04:25:41.831Z,993.04
2019-06-07T04:26:42.689Z,993.05
2019-06-07T04:27:39.255Z,992.98
2019-06-07T04:30:02.949Z,992.92
2019-06-07T04:30:39.555Z,992.88
2019-06-07T04:31:41.944Z,992.91
2019-06-07T04:32:40.642Z,992.89
2019-06-07T04:33:41.550Z,992.95
2019-06-07T04:34:42.030Z,992.92
2019-06-07T04:35:39.994Z,992.85
2019-06-07T04:36:47.438Z,992.84
2019-06-07T04:37:40.661Z,992.82
2019-06-07T04:38:40.563Z,992.84
2019-06-07T04:39:41.661Z,992.83
2019-06-07T04:40:39.989Z,992.84
2019-06-07T04:41:38.514Z,992.85
2019-06-07T04:42:41.846Z,992.84
2019-06-07T04:43:38.727Z,992.83
2019-06-07T04:44:40.655Z,992.79
2019-06-07T04:45:46.638Z,992.77
2019-06-07T04:46:40.799Z,992.77
2019-06-07T04:47:38.886Z,992.75
2019-06-07T04:48:41.173Z,992.71
2019-06-07T04:49:40.627Z,992.73
2019-06-07T04:50:39.986Z,992.76
2019-06-07T04:51:40.602Z,992.72
2019-06-07T04:52:42.783Z,992.65
2019-06-07T04:53:38.659Z,992.68
2019-06-07T04:54:38.554Z,992.69
2019-06-07T04:55:39.870Z,992.65
2019-06-07T04:56:40.909Z,992.62
2019-06-07T04:57:37.683Z,992.61
2019-06-07T04:58:38.298Z,992.56
2019-06-07T05:00:59.266Z,992.53
2019-06-07T05:01:39.535Z,992.51
2019-06-07T05:02:38.634Z,992.53
2019-06-07T05:03:39.401Z,992.56
2019-06-07T05:04:39.046Z,992.52
2019-06-07T05:05:39.803Z,992.50
2019-06-07T05:06:39.611Z,992.50
2019-06-07T05:07:37.831Z,992.53
2019-06-07T05:08:38.767Z,992.49
2019-06-07T05:09:39.414Z,992.47
2019-06-07T05:10:38.730Z,992.48
2019-06-07T05:11:39.416Z,992.46
2019-06-07T05:12:41.125Z,992.44
2019-06-07T05:13:38.943Z,992.41
2019-06-07T05:14:37.293Z,992.47
2019-06-07T05:15:39.003Z,992.44
2019-06-07T05:16:40.257Z,992.45
2019-06-07T05:17:37.096Z,992.40
2019-06-07T05:18:40.210Z,992.38
2019-06-07T05:19:39.141Z,992.34
2019-06-07T05:20:38.541Z,992.35
2019-06-07T05:21:54.219Z,992.33
2019-06-07T05:22:41.971Z,992.32
2019-06-07T05:24:06.550Z,992.35
2019-06-07T05:24:38.376Z,992.36
2019-06-07T05:25:38.442Z,992.37
2019-06-07T05:26:40.187Z,992.29
2019-06-07T05:27:38.673Z,992.34
2019-06-07T05:28:39.728Z,992.34
2019-06-07T05:29:37.240Z,992.36
2019-06-07T05:31:02.138Z,992.36
2019-06-07T05:31:39.599Z,992.38
2019-06-07T05:32:37.521Z,992.34
2019-06-07T05:33:38.098Z,992.35
2019-06-07T05:34:36.935Z,992.32
2019-06-07T05:35:39.748Z,992.29
2019-06-07T05:36:39.187Z,992.27
2019-06-07T05:37:38.033Z,992.25
2019-06-07T05:38:40.377Z,992.23
2019-06-07T05:39:38.383Z,992.22
2019-06-07T05:40:37.272Z,992.23
2019-06-07T05:41:37.131Z,992.20
2019-06-07T05:42:39.159Z,992.22
2019-06-07T05:43:39.281Z,992.18
2019-06-07T05:44:36.522Z,992.18
2019-06-07T05:45:39.263Z,992.20
2019-06-07T05:46:38.640Z,992.23
2019-06-07T05:47:40.344Z,992.21
2019-06-07T05:48:36.642Z,992.21
2019-06-07T05:49:39.561Z,992.15
2019-06-07T05:50:44.943Z,992.18
2019-06-07T05:51:38.055Z,992.16
2019-06-07T05:52:38.526Z,992.18
2019-06-07T05:53:38.962Z,992.20
2019-06-07T05:54:36.489Z,992.22
2019-06-07T05:55:37.681Z,992.20
2019-06-07T05:56:36.531Z,992.25
2019-06-07T05:57:38.077Z,992.23
2019-06-07T05:58:37.637Z,992.21
2019-06-07T05:59:38.254Z,992.22
2019-06-07T06:00:36.865Z,992.24
2019-06-07T06:01:45.022Z,992.24
2019-06-07T06:02:57.640Z,992.31
2019-06-07T06:03:36.601Z,992.30
2019-06-07T06:04:36.026Z,992.26
2019-06-07T06:05:41.644Z,992.26
2019-06-07T06:06:36.378Z,992.29
2019-06-07T06:07:38.740Z,992.28
2019-06-07T06:08:36.608Z,992.30
2019-06-07T06:09:36.450Z,992.24
2019-06-07T06:10:37.010Z,992.22
2019-06-07T06:11:49.276Z,992.24
2019-06-07T06:12:39.085Z,992.22
2019-06-07T06:13:36.848Z,992.25
2019-06-07T06:14:39.606Z,992.25
2019-06-07T06:15:46.328Z,992.30
2019-06-07T06:16:37.053Z,992.28
2019-06-07T06:17:37.812Z,992.26
2019-06-07T06:18:35.647Z,992.30
2019-06-07T06:19:36.807Z,992.30
2019-06-07T06:21:00.895Z,992.32
2019-06-07T06:21:36.175Z,992.34
2019-06-07T06:22:37.118Z,992.34
2019-06-07T06:23:39.002Z,992.29
2019-06-07T06:24:37.095Z,992.31
2019-06-07T06:25:37.210Z,992.24
2019-06-07T06:26:38.444Z,992.25
2019-06-07T06:28:07.778Z,992.22
2019-06-07T06:28:36.862Z,992.23
2019-06-07T06:29:38.035Z,992.28
2019-06-07T06:30:35.936Z,992.15
2019-06-07T06:31:35.170Z,992.16
2019-06-07T06:32:51.096Z,992.20
2019-06-07T06:33:35.149Z,992.19
2019-06-07T06:34:35.025Z,992.18
2019-06-07T06:35:35.001Z,992.14
2019-06-07T06:36:34.984Z,992.14
2019-06-07T06:37:34.968Z,992.15
2019-06-07T06:38:34.951Z,992.13
2019-06-07T06:39:34.939Z,992.15
2019-06-07T06:40:34.924Z,992.20
2019-06-07T06:41:46.168Z,992.24
2019-06-07T06:42:34.888Z,992.28
2019-06-07T06:43:34.862Z,992.31
2019-06-07T06:44:34.858Z,992.35
2019-06-07T06:45:34.834Z,992.30
2019-06-07T06:46:41.055Z,992.31
2019-06-07T06:47:34.798Z,992.28
2019-06-07T06:48:34.785Z,992.30
2019-06-07T06:49:34.769Z,992.35
2019-06-07T06:50:34.754Z,992.30
2019-06-07T06:51:34.734Z,992.32
2019-06-07T06:52:34.715Z,992.36
2019-06-07T06:53:34.702Z,992.37
2019-06-07T06:54:41.041Z,992.37
2019-06-07T06:55:34.696Z,992.37
2019-06-07T06:56:34.664Z,992.36
2019-06-07T06:57:34.645Z,992.33
2019-06-07T06:59:18.789Z,992.40
2019-06-07T06:59:39.149Z,992.42
2019-06-07T07:00:46.333Z,992.41
2019-06-07T07:01:34.581Z,992.42
2019-06-07T07:02:34.563Z,992.43
2019-06-07T07:03:57.240Z,992.42
2019-06-07T07:04:34.526Z,992.44
2019-06-07T07:05:34.516Z,992.36
2019-06-07T07:06:34.496Z,992.34
2019-06-07T07:07:34.484Z,992.33
2019-06-07T07:08:34.462Z,992.36
2019-06-07T07:09:34.452Z,992.34
2019-06-07T07:10:34.430Z,992.37
2019-06-07T07:11:51.879Z,992.31
2019-06-07T07:12:34.404Z,992.32
2019-06-07T07:13:34.389Z,992.30
2019-06-07T07:14:34.372Z,992.30
2019-06-07T07:15:34.384Z,992.29
2019-06-07T07:16:34.339Z,992.25
2019-06-07T07:17:50.799Z,992.26
2019-06-07T07:18:34.304Z,992.24
2019-06-07T07:19:34.383Z,992.19
2019-06-07T07:20:34.278Z,992.19
2019-06-07T07:21:34.263Z,992.16
2019-06-07T07:22:34.250Z,992.18
2019-06-07T07:23:34.235Z,992.17
2019-06-07T07:24:34.217Z,992.11
2019-06-07T07:25:34.203Z,992.13
2019-06-07T07:26:34.182Z,992.07
2019-06-07T07:27:34.166Z,992.05
2019-06-07T07:28:34.168Z,992.06
2019-06-07T07:29:34.141Z,992.02
2019-06-07T07:30:37.116Z,992.05
2019-06-07T07:31:34.106Z,992.02
2019-06-07T07:32:34.110Z,992.02
2019-06-07T07:34:21.002Z,991.99
2019-06-07T07:34:36.876Z,992.00
2019-06-07T07:35:34.059Z,992.01
2019-06-07T07:36:39.419Z,992.03
2019-06-07T07:37:34.018Z,991.94
2019-06-07T07:38:34.002Z,991.97
2019-06-07T07:39:33.991Z,991.98
2019-06-07T07:40:57.022Z,991.99
2019-06-07T07:41:33.962Z,991.95
2019-06-07T07:42:33.943Z,991.95
2019-06-07T07:43:33.933Z,991.97
2019-06-07T07:44:33.912Z,991.94
2019-06-07T07:45:33.898Z,991.89
2019-06-07T07:46:33.888Z,991.91
2019-06-07T07:47:34.030Z,991.93
2019-06-07T07:48:33.854Z,991.87
2019-06-07T07:49:33.838Z,991.87
2019-06-07T07:50:33.860Z,991.78
2019-06-07T07:51:33.809Z,991.77
2019-06-07T07:52:33.809Z,991.73
2019-06-07T07:53:48.318Z,991.70
2019-06-07T07:54:33.767Z,991.72
2019-06-07T07:55:33.748Z,991.72
2019-06-07T07:56:33.742Z,991.73
2019-06-07T07:57:33.721Z,991.69
2019-06-07T07:58:33.708Z,991.74
2019-06-07T07:59:43.975Z,991.71
2019-06-07T08:00:52.891Z,991.70
2019-06-07T08:01:33.662Z,991.62
2019-06-07T08:02:33.703Z,991.62
2019-06-07T08:03:33.637Z,991.64
2019-06-07T08:05:12.878Z,991.63
2019-06-07T08:05:42.365Z,991.62
2019-06-07T08:06:33.596Z,991.61
2019-06-07T08:07:33.581Z,991.61
2019-06-07T08:08:33.560Z,991.57
2019-06-07T08:09:33.550Z,991.56
2019-06-07T08:10:33.542Z,991.57
2019-06-07T08:11:33.519Z,991.53
2019-06-07T08:12:55.713Z,991.52
2019-06-07T08:13:33.646Z,991.49
2019-06-07T08:14:33.488Z,991.52
2019-06-07T08:15:33.477Z,991.45
2019-06-07T08:16:33.458Z,991.45
2019-06-07T08:17:33.448Z,991.41
2019-06-07T08:18:33.429Z,991.42
2019-06-07T08:19:33.420Z,991.43
2019-06-07T08:20:33.427Z,991.35
2019-06-07T08:21:33.389Z,991.39
2019-06-07T08:22:33.381Z,991.39
2019-06-07T08:23:33.368Z,991.41
2019-06-07T08:24:33.349Z,991.44
2019-06-07T08:25:33.335Z,991.39
2019-06-07T08:26:33.338Z,991.40
2019-06-07T08:27:33.317Z,991.36
2019-06-07T08:28:33.294Z,991.37
2019-06-07T08:29:44.900Z,991.35
2019-06-07T08:30:54.966Z,991.28
2019-06-07T08:31:33.265Z,991.28
2019-06-07T08:32:33.256Z,991.25
2019-06-07T08:33:33.243Z,991.21
2019-06-07T08:34:33.289Z,991.20
2019-06-07T08:36:41.795Z,991.19
2019-06-07T08:38:14.239Z,991.11
2019-06-07T08:38:47.063Z,991.09
2019-06-07T08:39:33.157Z,991.10
2019-06-07T08:40:33.145Z,991.11
2019-06-07T08:41:33.152Z,991.08
2019-06-07T08:42:38.563Z,991.09
2019-06-07T08:43:33.133Z,991.08
2019-06-07T08:44:33.101Z,991.00
2019-06-07T08:45:33.091Z,991.02
2019-06-07T08:46:33.112Z,990.97
2019-06-07T08:47:33.082Z,990.97
2019-06-07T08:48:33.056Z,990.94
2019-06-07T08:49:33.036Z,990.96
2019-06-07T08:50:33.028Z,990.93
2019-06-07T08:51:33.021Z,990.89
2019-06-07T08:52:33.008Z,990.92
2019-06-07T08:53:32.990Z,990.94
2019-06-07T08:54:32.979Z,990.97
2019-06-07T08:55:33.056Z,990.89
2019-06-07T08:56:32.970Z,990.95
2019-06-07T08:57:32.947Z,990.99
2019-06-07T08:58:32.933Z,990.91
2019-06-07T08:59:32.921Z,990.94
2019-06-07T09:00:48.348Z,990.94
2019-06-07T09:01:32.908Z,990.97
2019-06-07T09:02:32.897Z,990.96
2019-06-07T09:03:32.879Z,990.90
2019-06-07T09:04:32.876Z,990.95
2019-06-07T09:05:32.857Z,990.88
2019-06-07T09:07:32.838Z,990.89
2019-06-07T09:08:32.825Z,990.91
2019-06-07T09:09:32.803Z,990.95
2019-06-07T09:10:32.842Z,990.91
2019-06-07T09:11:32.822Z,990.87
2019-06-07T09:12:32.771Z,990.88
2019-06-07T09:13:33.349Z,990.82
2019-06-07T09:14:32.761Z,990.88
2019-06-07T09:15:32.741Z,990.92
2019-06-07T09:16:32.723Z,990.90
2019-06-07T09:17:34.214Z,990.91
2019-06-07T09:18:43.227Z,990.89
2019-06-07T09:19:32.684Z,990.87
2019-06-07T09:20:36.734Z,990.85
2019-06-07T09:21:32.707Z,990.86
2019-06-07T09:22:32.670Z,990.83
2019-06-07T09:23:32.642Z,990.78
2019-06-07T09:24:32.634Z,990.80
2019-06-07T09:25:32.619Z,990.74
2019-06-07T09:26:32.613Z,990.69
2019-06-07T09:27:32.594Z,990.70
2019-06-07T09:28:32.592Z,990.67
2019-06-07T09:29:32.580Z,990.63
2019-06-07T09:30:32.594Z,990.62
2019-06-07T09:31:51.157Z,990.62
2019-06-07T09:32:32.587Z,990.57
2019-06-07T09:33:32.533Z,990.61
2019-06-07T09:34:32.526Z,990.63
2019-06-07T09:35:32.517Z,990.60
2019-06-07T09:36:32.500Z,990.62
2019-06-07T09:38:04.251Z,990.62
2019-06-07T09:38:32.491Z,990.65
2019-06-07T09:39:32.481Z,990.66
2019-06-07T09:40:32.472Z,990.67
2019-06-07T09:41:46.995Z,990.64
2019-06-07T09:42:32.434Z,990.61
2019-06-07T09:44:01.951Z,990.63
2019-06-07T09:44:32.424Z,990.57
2019-06-07T09:45:32.405Z,990.61
2019-06-07T09:46:32.399Z,990.58
2019-06-07T09:47:33.251Z,990.59
2019-06-07T09:49:09.857Z,990.59
2019-06-07T09:49:33.339Z,990.54
2019-06-07T09:50:32.353Z,990.53
2019-06-07T09:51:32.355Z,990.49
2019-06-07T09:52:56.394Z,990.45
2019-06-07T09:53:32.321Z,990.45
2019-06-07T09:55:32.302Z,990.38
2019-06-07T09:56:32.287Z,990.37
2019-06-07T09:57:32.273Z,990.33
2019-06-07T09:58:51.731Z,990.32
2019-06-07T09:59:32.254Z,990.31
2019-06-07T10:00:41.030Z,990.32
2019-06-07T10:01:32.236Z,990.33
2019-06-07T10:02:32.233Z,990.32
2019-06-07T10:03:32.216Z,990.29
2019-06-07T10:04:32.224Z,990.35
2019-06-07T10:05:32.205Z,990.27
2019-06-07T10:06:32.214Z,990.28
2019-06-07T10:07:32.286Z,990.26
2019-06-07T10:11:32.152Z,990.21
2019-06-07T10:12:32.142Z,990.18
2019-06-07T10:13:32.135Z,990.18
2019-06-07T10:14:32.119Z,990.15
2019-06-07T10:15:32.119Z,990.17
2019-06-07T10:16:45.947Z,990.17
2019-06-07T10:17:32.105Z,990.14
2019-06-07T10:18:32.097Z,990.15
2019-06-07T10:19:32.089Z,990.15
2019-06-07T10:20:32.079Z,990.11
2019-06-07T10:21:32.069Z,990.12
2019-06-07T10:22:32.095Z,990.09
2019-06-07T10:23:32.062Z,989.99
2019-06-07T10:24:32.059Z,990.03
2019-06-07T10:25:32.046Z,990.05
2019-06-07T10:26:32.036Z,989.97
2019-06-07T10:27:32.038Z,990.00
2019-06-07T10:28:32.043Z,990.00
2019-06-07T10:29:32.052Z,989.95
2019-06-07T10:30:32.019Z,989.95
2019-06-07T10:31:32.015Z,989.93
2019-06-07T10:32:32.053Z,989.87
2019-06-07T10:33:32.011Z,989.84
2019-06-07T10:34:31.992Z,989.83
2019-06-07T10:35:32.055Z,989.80
2019-06-07T10:36:31.982Z,989.81
2019-06-07T10:37:31.979Z,989.83
2019-06-07T10:38:31.989Z,989.79
2019-06-07T10:39:44.956Z,989.81
2019-06-07T10:40:31.969Z,989.81
2019-06-07T10:41:31.988Z,989.78
2019-06-07T10:42:31.956Z,989.78
2019-06-07T10:43:31.945Z,989.76
2019-06-07T10:44:31.942Z,989.73
2019-06-07T10:45:31.973Z,989.77
2019-06-07T10:46:31.939Z,989.74
2019-06-07T10:47:31.936Z,989.76
2019-06-07T10:48:31.936Z,989.73
2019-06-07T10:49:31.923Z,989.73
2019-06-07T10:50:31.926Z,989.78
2019-06-07T10:51:31.919Z,989.79
2019-06-07T10:52:31.914Z,989.72
2019-06-07T10:53:31.910Z,989.72
2019-06-07T10:54:31.932Z,989.73
2019-06-07T10:55:31.901Z,989.71
2019-06-07T10:56:31.904Z,989.70
2019-06-07T10:57:31.901Z,989.70
2019-06-07T10:58:31.898Z,989.62
2019-06-07T10:59:31.891Z,989.65
2019-06-07T11:00:31.894Z,989.62
2019-06-07T11:01:31.898Z,989.62
2019-06-07T11:02:31.881Z,989.56
2019-06-07T11:03:31.888Z,989.58
2019-06-07T11:04:31.878Z,989.58
2019-06-07T11:05:31.878Z,989.59
2019-06-07T11:06:31.885Z,989.57
2019-06-07T11:07:31.869Z,989.58
2019-06-07T11:08:31.868Z,989.55
2019-06-07T11:09:33.205Z,989.58
2019-06-07T11:10:31.863Z,989.52
2019-06-07T11:11:31.866Z,989.54
2019-06-07T11:12:31.864Z,989.51
2019-06-07T11:13:31.863Z,989.48
2019-06-07T11:14:31.859Z,989.43
2019-06-07T11:15:31.859Z,989.43
2019-06-07T11:16:31.854Z,989.40
2019-06-07T11:17:31.852Z,989.42
2019-06-07T11:18:31.847Z,989.40
2019-06-07T11:19:31.850Z,989.42
2019-06-07T11:20:31.866Z,989.40
2019-06-07T11:21:31.853Z,989.34
2019-06-07T11:22:31.876Z,989.37
2019-06-07T11:23:31.847Z,989.40
2019-06-07T11:24:31.843Z,989.35
2019-06-07T11:25:31.844Z,989.40
2019-06-07T11:26:31.865Z,989.39
2019-06-07T11:27:31.847Z,989.38
2019-06-07T11:28:31.844Z,989.31
2019-06-07T11:29:31.844Z,989.31
2019-06-07T11:30:31.846Z,989.29
2019-06-07T11:31:31.846Z,989.26
2019-06-07T11:32:31.841Z,989.27
2019-06-07T11:33:31.875Z,989.27
2019-06-07T11:34:31.850Z,989.25
2019-06-07T11:35:31.847Z,989.25
2019-06-07T11:36:31.847Z,989.29
2019-06-07T11:37:31.844Z,989.21
2019-06-07T11:38:31.856Z,989.19
2019-06-07T11:39:31.866Z,989.16
2019-06-07T11:40:35.512Z,989.10
2019-06-07T11:41:31.848Z,989.07
2019-06-07T11:42:31.853Z,989.01
2019-06-07T11:43:31.857Z,989.03
2019-06-07T11:44:31.854Z,989.02
2019-06-07T11:45:31.853Z,989.05
2019-06-07T11:46:31.857Z,989.12
2019-06-07T11:47:31.860Z,989.04
2019-06-07T11:48:31.857Z,988.99
2019-06-07T11:49:31.857Z,989.02
2019-06-07T11:50:31.892Z,989.04
2019-06-07T11:51:31.872Z,989.02
2019-06-07T11:52:31.868Z,988.97
2019-06-07T11:53:31.876Z,988.91
2019-06-07T11:54:31.873Z,988.92
2019-06-07T11:55:31.886Z,988.91
2019-06-07T11:56:31.869Z,988.90
2019-06-07T11:57:31.870Z,988.87
2019-06-07T11:58:31.873Z,988.89
2019-06-07T11:59:31.877Z,988.82
2019-06-07T12:00:34.214Z,988.83
2019-06-07T12:01:31.877Z,988.80
2019-06-07T12:02:31.886Z,988.82
2019-06-07T12:03:31.891Z,988.82
2019-06-07T12:04:34.935Z,988.80
2019-06-07T12:05:31.882Z,988.78
2019-06-07T12:06:31.890Z,988.82
2019-06-07T12:07:31.888Z,988.77
2019-06-07T12:08:31.889Z,988.74
2019-06-07T12:09:31.896Z,988.79
2019-06-07T12:10:42.002Z,988.75
2019-06-07T12:11:31.892Z,988.64
2019-06-07T12:12:31.892Z,988.70
2019-06-07T12:13:31.906Z,988.69
2019-06-07T12:14:31.906Z,988.71
2019-06-07T12:15:31.906Z,988.62
2019-06-07T12:16:31.907Z,988.62
2019-06-07T12:17:31.908Z,988.69
2019-06-07T12:18:31.909Z,988.59
2019-06-07T12:19:31.908Z,988.58
2019-06-07T12:20:31.910Z,988.62
2019-06-07T12:21:31.911Z,988.49
2019-06-07T12:22:31.912Z,988.50
2019-06-07T12:23:31.909Z,988.57
2019-06-07T12:24:31.912Z,988.56
2019-06-07T12:25:31.914Z,988.51
2019-06-07T12:26:31.915Z,988.52
2019-06-07T12:27:31.912Z,988.49
2019-06-07T12:28:31.907Z,988.54
2019-06-07T12:29:33.931Z,988.50
2019-06-07T12:30:31.908Z,988.43
2019-06-07T12:31:31.906Z,988.42
2019-06-07T12:32:31.927Z,988.40
2019-06-07T12:33:31.909Z,988.41
2019-06-07T12:34:31.913Z,988.36
2019-06-07T12:35:31.919Z,988.37
2019-06-07T12:36:31.916Z,988.38